sensor_id;sensor_type;location;lat;lon;timestamp;pressure;altitude;pressure_sealevel;temperature;humidity
38227;BME280;24026;49.446;8.576;2022-12-29T00:00:48;99980.63;;;10.91;55.82
38227;BME280;24026;49.446;8.576;2022-12-29T00:03:09;99974.50;;;10.91;55.69
38227;BME280;24026;49.446;8.576;2022-12-29T00:05:29;99964.91;;;10.90;56.00
38227;BME280;24026;49.446;8.576;2022-12-29T00:07:49;99967.31;;;10.91;55.94
38227;BME280;24026;49.446;8.576;2022-12-29T00:10:10;99962.81;;;10.92;55.81
38227;BME280;24026;49.446;8.576;2022-12-29T00:12:30;99967.31;;;10.91;55.93
38227;BME280;24026;49.446;8.576;2022-12-29T00:15:11;99959.34;;;10.91;56.07
38227;BME280;24026;49.446;8.576;2022-12-29T00:17:49;99952.16;;;10.92;56.11
38227;BME280;24026;49.446;8.576;2022-12-29T00:20:10;99963.88;;;10.91;55.89
38227;BME280;24026;49.446;8.576;2022-12-29T00:22:49;99955.06;;;10.90;55.98
38227;BME280;24026;49.446;8.576;2022-12-29T00:25:28;99958.28;;;10.92;56.18
38227;BME280;24026;49.446;8.576;2022-12-29T00:28:10;99948.47;;;10.93;55.94
38227;BME280;24026;49.446;8.576;2022-12-29T00:30:49;99966.25;;;10.92;55.97
38227;BME280;24026;49.446;8.576;2022-12-29T00:33:33;99961.75;;;10.93;55.99
38227;BME280;24026;49.446;8.576;2022-12-29T00:38:43;99964.97;;;10.95;56.12
38227;BME280;24026;49.446;8.576;2022-12-29T00:41:24;99956.19;;;10.94;56.12
38227;BME280;24026;49.446;8.576;2022-12-29T00:44:03;99966.81;;;10.94;56.34
38227;BME280;24026;49.446;8.576;2022-12-29T00:46:26;99960.44;;;10.96;56.20
38227;BME280;24026;49.446;8.576;2022-12-29T00:48:46;99964.97;;;10.95;56.21
38227;BME280;24026;49.446;8.576;2022-12-29T00:51:25;99968.41;;;10.96;56.27
38227;BME280;24026;49.446;8.576;2022-12-29T00:53:45;99954.06;;;10.97;56.30
38227;BME280;24026;49.446;8.576;2022-12-29T00:56:06;99962.03;;;10.97;56.11
38227;BME280;24026;49.446;8.576;2022-12-29T00:58:28;99962.84;;;10.97;56.25
38227;BME280;24026;49.446;8.576;2022-12-29T01:00:48;99968.16;;;10.97;56.31
38227;BME280;24026;49.446;8.576;2022-12-29T01:03:09;99963.91;;;10.96;56.36
38227;BME280;24026;49.446;8.576;2022-12-29T01:05:29;99968.97;;;10.98;56.29
38227;BME280;24026;49.446;8.576;2022-12-29T01:07:49;99970.03;;;10.97;56.23
38227;BME280;24026;49.446;8.576;2022-12-29T01:10:10;99966.31;;;10.98;56.25
38227;BME280;24026;49.446;8.576;2022-12-29T01:12:33;99966.31;;;10.98;56.28
38227;BME280;24026;49.446;8.576;2022-12-29T01:15:06;99964.44;;;10.98;56.26
38227;BME280;24026;49.446;8.576;2022-12-29T01:17:27;99964.44;;;10.98;56.34
38227;BME280;24026;49.446;8.576;2022-12-29T01:19:47;99967.13;;;10.98;56.37
38227;BME280;24026;49.446;8.576;2022-12-29T01:22:08;99951.16;;;10.98;56.48
38227;BME280;24026;49.446;8.576;2022-12-29T01:24:28;99948.50;;;10.98;56.51
38227;BME280;24026;49.446;8.576;2022-12-29T01:26:49;99945.84;;;10.98;56.60
38227;BME280;24026;49.446;8.576;2022-12-29T01:29:09;99949.28;;;10.99;56.33
38227;BME280;24026;49.446;8.576;2022-12-29T01:31:30;99941.31;;;10.99;56.55
38227;BME280;24026;49.446;8.576;2022-12-29T01:33:50;99966.84;;;11.00;56.52
38227;BME280;24026;49.446;8.576;2022-12-29T01:36:13;99954.34;;;11.00;56.54
38227;BME280;24026;49.446;8.576;2022-12-29T01:38:35;99952.50;;;11.01;56.49
38227;BME280;24026;49.446;8.576;2022-12-29T01:40:56;99946.38;;;11.00;56.70
38227;BME280;24026;49.446;8.576;2022-12-29T01:43:16;99954.91;;;11.02;56.56
38227;BME280;24026;49.446;8.576;2022-12-29T01:45:44;99948.00;;;11.01;56.39
38227;BME280;24026;49.446;8.576;2022-12-29T01:48:08;99947.16;;;11.01;56.54
38227;BME280;24026;49.446;8.576;2022-12-29T01:50:30;99944.25;;;11.02;56.64
38227;BME280;24026;49.446;8.576;2022-12-29T01:53:03;99954.91;;;11.02;56.47
38227;BME280;24026;49.446;8.576;2022-12-29T01:55:27;99956.50;;;11.03;56.59
38227;BME280;24026;49.446;8.576;2022-12-29T01:57:51;99944.00;;;11.04;56.81
38227;BME280;24026;49.446;8.576;2022-12-29T02:00:13;99944.00;;;11.04;56.67
38227;BME280;24026;49.446;8.576;2022-12-29T02:02:34;99950.16;;;11.04;56.65
38227;BME280;24026;49.446;8.576;2022-12-29T02:04:57;99948.00;;;11.01;56.92
38227;BME280;24026;49.446;8.576;2022-12-29T02:07:21;99950.94;;;11.05;56.77
38227;BME280;24026;49.446;8.576;2022-12-29T02:09:43;99940.31;;;11.05;56.58
38227;BME280;24026;49.446;8.576;2022-12-29T02:12:07;99951.47;;;11.07;56.81
38227;BME280;24026;49.446;8.576;2022-12-29T02:14:28;99945.13;;;11.08;56.79
38227;BME280;24026;49.446;8.576;2022-12-29T02:22:27;99947.75;;;11.03;56.99
38227;BME280;24026;49.446;8.576;2022-12-29T02:27:23;99945.13;;;11.08;57.14
38227;BME280;24026;49.446;8.576;2022-12-29T02:32:28;99936.56;;;11.06;57.40
38227;BME280;24026;49.446;8.576;2022-12-29T02:39:58;99936.88;;;11.09;57.51
38227;BME280;24026;49.446;8.576;2022-12-29T02:42:29;99938.72;;;11.09;57.71
38227;BME280;24026;49.446;8.576;2022-12-29T02:45:17;99935.78;;;11.05;57.82
38227;BME280;24026;49.446;8.576;2022-12-29T02:50:26;99928.34;;;11.07;58.10
38227;BME280;24026;49.446;8.576;2022-12-29T02:52:56;99929.19;;;11.13;57.94
38227;BME280;24026;49.446;8.576;2022-12-29T02:55:18;99914.28;;;11.12;58.10
38227;BME280;24026;49.446;8.576;2022-12-29T02:57:38;99915.91;;;11.13;58.05
38227;BME280;24026;49.446;8.576;2022-12-29T03:02:53;99911.06;;;11.10;58.42
38227;BME280;24026;49.446;8.576;2022-12-29T03:05:42;99906.81;;;11.09;58.33
38227;BME280;24026;49.446;8.576;2022-12-29T03:08:28;99909.47;;;11.09;58.68
38227;BME280;24026;49.446;8.576;2022-12-29T03:13:23;99903.88;;;11.05;59.01
38227;BME280;24026;49.446;8.576;2022-12-29T03:16:18;99899.66;;;11.09;59.13
38227;BME280;24026;49.446;8.576;2022-12-29T03:18:49;99899.94;;;11.13;58.95
38227;BME280;24026;49.446;8.576;2022-12-29T03:21:32;99902.31;;;11.09;59.08
38227;BME280;24026;49.446;8.576;2022-12-29T03:24:13;99888.22;;;11.14;59.08
38227;BME280;24026;49.446;8.576;2022-12-29T03:26:34;99885.31;;;11.16;59.20
38227;BME280;24026;49.446;8.576;2022-12-29T03:28:56;99871.22;;;11.15;59.20
38227;BME280;24026;49.446;8.576;2022-12-29T03:31:17;99878.16;;;11.16;59.32
38227;BME280;24026;49.446;8.576;2022-12-29T03:33:41;99868.28;;;11.17;59.32
38227;BME280;24026;49.446;8.576;2022-12-29T03:36:04;99870.69;;;11.18;59.33
38227;BME280;24026;49.446;8.576;2022-12-29T03:40:52;99874.94;;;11.19;59.41
38227;BME280;24026;49.446;8.576;2022-12-29T03:43:15;99858.97;;;11.19;59.56
38227;BME280;24026;49.446;8.576;2022-12-29T03:45:38;99860.06;;;11.18;59.42
38227;BME280;24026;49.446;8.576;2022-12-29T03:47:58;99856.63;;;11.18;59.50
38227;BME280;24026;49.446;8.576;2022-12-29T03:50:19;99853.94;;;11.18;59.95
38227;BME280;24026;49.446;8.576;2022-12-29T03:52:39;99835.03;;;11.19;59.91
38227;BME280;24026;49.446;8.576;2022-12-29T03:55:00;99841.97;;;11.20;59.89
38227;BME280;24026;49.446;8.576;2022-12-29T03:57:20;99843.59;;;11.21;60.00
38227;BME280;24026;49.446;8.576;2022-12-29T03:59:41;99830.28;;;11.21;60.26
38227;BME280;24026;49.446;8.576;2022-12-29T04:02:01;99830.28;;;11.21;60.27
38227;BME280;24026;49.446;8.576;2022-12-29T04:04:21;99827.63;;;11.21;60.51
38227;BME280;24026;49.446;8.576;2022-12-29T04:06:42;99828.41;;;11.22;60.45
38227;BME280;24026;49.446;8.576;2022-12-29T04:09:02;99827.38;;;11.23;60.43
38227;BME280;24026;49.446;8.576;2022-12-29T04:11:23;99835.63;;;11.21;60.71
38227;BME280;24026;49.446;8.576;2022-12-29T04:13:43;99829.22;;;11.22;60.77
38227;BME280;24026;49.446;8.576;2022-12-29T04:16:04;99827.38;;;11.23;60.63
38227;BME280;24026;49.446;8.576;2022-12-29T04:18:25;99828.16;;;11.23;60.73
38227;BME280;24026;49.446;8.576;2022-12-29T04:20:45;99826.28;;;11.24;60.75
38227;BME280;24026;49.446;8.576;2022-12-29T04:23:21;99820.44;;;11.22;60.93
38227;BME280;24026;49.446;8.576;2022-12-29T04:25:45;99826.28;;;11.24;61.04
38227;BME280;24026;49.446;8.576;2022-12-29T04:28:05;99830.81;;;11.23;60.89
38227;BME280;24026;49.446;8.576;2022-12-29T04:30:27;99828.97;;;11.24;61.32
38227;BME280;24026;49.446;8.576;2022-12-29T04:32:48;99825.50;;;11.23;61.19
38227;BME280;24026;49.446;8.576;2022-12-29T04:35:08;99812.22;;;11.23;61.26
38227;BME280;24026;49.446;8.576;2022-12-29T04:37:29;99817.53;;;11.23;61.43
38227;BME280;24026;49.446;8.576;2022-12-29T04:39:49;99812.22;;;11.23;61.34
38227;BME280;24026;49.446;8.576;2022-12-29T04:42:09;99814.59;;;11.25;61.26
38227;BME280;24026;49.446;8.576;2022-12-29T04:44:30;99822.06;;;11.23;61.63
38227;BME280;24026;49.446;8.576;2022-12-29T04:46:50;99816.47;;;11.24;61.34
38227;BME280;24026;49.446;8.576;2022-12-29T04:49:11;99822.84;;;11.23;61.50
38227;BME280;24026;49.446;8.576;2022-12-29T04:51:31;99825.25;;;11.25;61.55
38227;BME280;24026;49.446;8.576;2022-12-29T04:53:51;99819.13;;;11.24;61.33
38227;BME280;24026;49.446;8.576;2022-12-29T04:56:12;99820.72;;;11.25;61.57
38227;BME280;24026;49.446;8.576;2022-12-29T04:58:32;99820.19;;;11.28;61.51
38227;BME280;24026;49.446;8.576;2022-12-29T05:00:53;99826.56;;;11.27;61.55
38227;BME280;24026;49.446;8.576;2022-12-29T05:03:13;99834.56;;;11.27;61.64
38227;BME280;24026;49.446;8.576;2022-12-29T05:05:33;99829.22;;;11.27;61.66
38227;BME280;24026;49.446;8.576;2022-12-29T05:07:54;99839.09;;;11.27;61.75
38227;BME280;24026;49.446;8.576;2022-12-29T05:10:14;99839.63;;;11.29;61.47
38227;BME280;24026;49.446;8.576;2022-12-29T05:12:36;99834.28;;;11.29;61.63
38227;BME280;24026;49.446;8.576;2022-12-29T05:14:57;99835.13;;;11.29;61.82
38227;BME280;24026;49.446;8.576;2022-12-29T05:17:17;99828.97;;;11.29;61.77
38227;BME280;24026;49.446;8.576;2022-12-29T05:19:38;99818.34;;;11.29;61.52
38227;BME280;24026;49.446;8.576;2022-12-29T05:21:58;99819.16;;;11.29;61.27
38227;BME280;24026;49.446;8.576;2022-12-29T05:24:19;99820.19;;;11.28;61.58
38227;BME280;24026;49.446;8.576;2022-12-29T05:26:39;99827.94;;;11.30;61.88
38227;BME280;24026;49.446;8.576;2022-12-29T05:29:00;99828.72;;;11.30;61.75
38227;BME280;24026;49.446;8.576;2022-12-29T05:31:20;99827.94;;;11.30;62.16
38227;BME280;24026;49.446;8.576;2022-12-29T05:33:41;99826.88;;;11.31;61.71
38227;BME280;24026;49.446;8.576;2022-12-29T05:36:05;99837.78;;;11.29;61.74
38227;BME280;24026;49.446;8.576;2022-12-29T05:38:26;99835.66;;;11.31;61.97
38227;BME280;24026;49.446;8.576;2022-12-29T05:40:47;99834.56;;;11.32;61.87
38227;BME280;24026;49.446;8.576;2022-12-29T05:43:07;99834.88;;;11.31;61.72
38227;BME280;24026;49.446;8.576;2022-12-29T05:45:27;99828.47;;;11.32;61.69
38227;BME280;24026;49.446;8.576;2022-12-29T05:47:48;99828.47;;;11.32;61.91
38227;BME280;24026;49.446;8.576;2022-12-29T05:50:08;99831.13;;;11.32;61.79
38227;BME280;24026;49.446;8.576;2022-12-29T05:52:28;99840.97;;;11.31;61.75
38227;BME280;24026;49.446;8.576;2022-12-29T05:54:49;99835.41;;;11.33;61.68
38227;BME280;24026;49.446;8.576;2022-12-29T05:57:09;99835.41;;;11.33;61.71
38227;BME280;24026;49.446;8.576;2022-12-29T05:59:30;99838.84;;;11.34;61.62
38227;BME280;24026;49.446;8.576;2022-12-29T06:01:50;99830.88;;;11.34;61.90
38227;BME280;24026;49.446;8.576;2022-12-29T06:04:10;99838.06;;;11.33;61.82
38227;BME280;24026;49.446;8.576;2022-12-29T06:06:31;99830.88;;;11.34;61.59
38227;BME280;24026;49.446;8.576;2022-12-29T06:08:51;99821.84;;;11.35;61.64
38227;BME280;24026;49.446;8.576;2022-12-29T06:11:12;99830.59;;;11.35;62.06
38227;BME280;24026;49.446;8.576;2022-12-29T06:13:32;99821.00;;;11.34;61.96
38227;BME280;24026;49.446;8.576;2022-12-29T06:15:53;99811.97;;;11.35;61.74
38227;BME280;24026;49.446;8.576;2022-12-29T06:18:13;99811.19;;;11.35;61.87
38227;BME280;24026;49.446;8.576;2022-12-29T06:20:34;99806.66;;;11.35;61.80
38227;BME280;24026;49.446;8.576;2022-12-29T06:22:54;99807.44;;;11.36;61.86
38227;BME280;24026;49.446;8.576;2022-12-29T06:25:15;99805.88;;;11.35;61.93
38227;BME280;24026;49.446;8.576;2022-12-29T06:27:35;99808.53;;;11.35;61.95
38227;BME280;24026;49.446;8.576;2022-12-29T06:29:56;99810.13;;;11.36;62.11
38227;BME280;24026;49.446;8.576;2022-12-29T06:32:16;99806.66;;;11.35;61.78
38227;BME280;24026;49.446;8.576;2022-12-29T06:34:37;99805.63;;;11.36;61.62
38227;BME280;24026;49.446;8.576;2022-12-29T06:36:57;99807.44;;;11.36;62.02
38227;BME280;24026;49.446;8.576;2022-12-29T06:39:18;99802.13;;;11.36;62.00
38227;BME280;24026;49.446;8.576;2022-12-29T06:41:38;99808.28;;;11.36;61.91
38227;BME280;24026;49.446;8.576;2022-12-29T06:43:59;99802.13;;;11.36;61.96
38227;BME280;24026;49.446;8.576;2022-12-29T06:46:19;99796.81;;;11.36;61.92
38227;BME280;24026;49.446;8.576;2022-12-29T06:48:40;99802.94;;;11.36;61.96
38227;BME280;24026;49.446;8.576;2022-12-29T06:51:02;99792.31;;;11.36;61.86
38227;BME280;24026;49.446;8.576;2022-12-29T06:53:22;99799.47;;;11.36;61.65
38227;BME280;24026;49.446;8.576;2022-12-29T06:55:43;99799.47;;;11.36;62.04
38227;BME280;24026;49.446;8.576;2022-12-29T06:58:03;99793.09;;;11.37;62.10
38227;BME280;24026;49.446;8.576;2022-12-29T07:00:24;99787.78;;;11.37;61.77
38227;BME280;24026;49.446;8.576;2022-12-29T07:02:45;99791.50;;;11.36;61.87
38227;BME280;24026;49.446;8.576;2022-12-29T07:05:05;99784.34;;;11.36;61.79
38227;BME280;24026;49.446;8.576;2022-12-29T07:07:27;99793.91;;;11.37;61.79
38227;BME280;24026;49.446;8.576;2022-12-29T07:09:47;99793.09;;;11.37;61.86
38227;BME280;24026;49.446;8.576;2022-12-29T07:12:08;99799.22;;;11.37;61.81
38227;BME280;24026;49.446;8.576;2022-12-29T07:14:29;99798.41;;;11.37;61.64
38227;BME280;24026;49.446;8.576;2022-12-29T07:16:50;99801.88;;;11.37;61.83
38227;BME280;24026;49.446;8.576;2022-12-29T07:19:10;99800.03;;;11.38;61.82
38227;BME280;24026;49.446;8.576;2022-12-29T07:21:30;99804.53;;;11.37;61.90
38227;BME280;24026;49.446;8.576;2022-12-29T07:23:51;99808.00;;;11.38;61.81
38227;BME280;24026;49.446;8.576;2022-12-29T07:26:13;99807.72;;;11.39;61.64
38227;BME280;24026;49.446;8.576;2022-12-29T07:28:35;99806.16;;;11.38;61.70
38227;BME280;24026;49.446;8.576;2022-12-29T07:30:55;99811.47;;;11.38;61.92
38227;BME280;24026;49.446;8.576;2022-12-29T07:33:16;99814.13;;;11.38;61.89
38227;BME280;24026;49.446;8.576;2022-12-29T07:35:36;99807.72;;;11.39;61.67
38227;BME280;24026;49.446;8.576;2022-12-29T07:37:56;99819.97;;;11.40;61.60
38227;BME280;24026;49.446;8.576;2022-12-29T07:40:17;99813.06;;;11.39;61.86
38227;BME280;24026;49.446;8.576;2022-12-29T07:42:37;99816.53;;;11.40;61.67
38227;BME280;24026;49.446;8.576;2022-12-29T07:44:58;99823.69;;;11.39;61.56
38227;BME280;24026;49.446;8.576;2022-12-29T07:47:18;99819.97;;;11.40;61.78
38227;BME280;24026;49.446;8.576;2022-12-29T07:49:38;99821.84;;;11.40;61.49
38227;BME280;24026;49.446;8.576;2022-12-29T07:51:59;99821.84;;;11.40;61.72
38227;BME280;24026;49.446;8.576;2022-12-29T07:54:19;99823.44;;;11.41;61.67
38227;BME280;24026;49.446;8.576;2022-12-29T07:56:40;99821.84;;;11.40;61.44
38227;BME280;24026;49.446;8.576;2022-12-29T07:59:00;99820.78;;;11.41;61.60
38227;BME280;24026;49.446;8.576;2022-12-29T08:01:21;99818.94;;;11.41;61.53
38227;BME280;24026;49.446;8.576;2022-12-29T08:03:43;99827.44;;;11.43;61.45
38227;BME280;24026;49.446;8.576;2022-12-29T08:06:03;99832.25;;;11.41;61.70
38227;BME280;24026;49.446;8.576;2022-12-29T08:08:24;99832.25;;;11.41;61.67
38227;BME280;24026;49.446;8.576;2022-12-29T08:10:44;99835.44;;;11.43;61.50
38227;BME280;24026;49.446;8.576;2022-12-29T08:13:04;99836.22;;;11.44;61.41
38227;BME280;24026;49.446;8.576;2022-12-29T08:15:25;99841.53;;;11.44;61.56
38227;BME280;24026;49.446;8.576;2022-12-29T08:17:45;99847.41;;;11.46;61.38
38227;BME280;24026;49.446;8.576;2022-12-29T08:20:07;99848.22;;;11.46;61.27
38227;BME280;24026;49.446;8.576;2022-12-29T08:22:27;99858.03;;;11.46;61.29
38227;BME280;24026;49.446;8.576;2022-12-29T08:24:48;99860.72;;;11.46;61.33
38227;BME280;24026;49.446;8.576;2022-12-29T08:27:08;99857.00;;;11.47;61.27
38227;BME280;24026;49.446;8.576;2022-12-29T08:29:28;99857.00;;;11.47;61.61
38227;BME280;24026;49.446;8.576;2022-12-29T08:31:49;99866.59;;;11.48;61.29
38227;BME280;24026;49.446;8.576;2022-12-29T08:34:09;99858.63;;;11.48;61.24
38227;BME280;24026;49.446;8.576;2022-12-29T08:36:30;99866.59;;;11.48;61.26
38227;BME280;24026;49.446;8.576;2022-12-29T08:38:51;99873.50;;;11.49;61.35
38227;BME280;24026;49.446;8.576;2022-12-29T08:41:11;99880.44;;;11.50;61.39
38227;BME280;24026;49.446;8.576;2022-12-29T08:43:31;99887.38;;;11.51;61.03
38227;BME280;24026;49.446;8.576;2022-12-29T08:45:52;99875.91;;;11.50;61.35
38227;BME280;24026;49.446;8.576;2022-12-29T08:48:12;99876.72;;;11.51;61.15
38227;BME280;24026;49.446;8.576;2022-12-29T08:50:33;99874.84;;;11.52;61.37
38227;BME280;24026;49.446;8.576;2022-12-29T08:52:53;99881.75;;;11.53;61.17
38227;BME280;24026;49.446;8.576;2022-12-29T08:55:14;99871.94;;;11.53;61.15
38227;BME280;24026;49.446;8.576;2022-12-29T08:57:34;99873.53;;;11.54;61.17
38227;BME280;24026;49.446;8.576;2022-12-29T08:59:54;99873.78;;;11.53;61.02
38227;BME280;24026;49.446;8.576;2022-12-29T09:02:15;99878.84;;;11.54;61.26
38227;BME280;24026;49.446;8.576;2022-12-29T09:04:35;99879.66;;;11.55;61.05
38227;BME280;24026;49.446;8.576;2022-12-29T09:06:56;99875.13;;;11.55;61.09
38227;BME280;24026;49.446;8.576;2022-12-29T09:09:16;99878.31;;;11.57;60.93
38227;BME280;24026;49.446;8.576;2022-12-29T09:11:37;99883.66;;;11.57;60.83
38227;BME280;24026;49.446;8.576;2022-12-29T09:13:57;99889.78;;;11.58;60.74
38227;BME280;24026;49.446;8.576;2022-12-29T09:16:20;99894.28;;;11.57;60.94
38227;BME280;24026;49.446;8.576;2022-12-29T09:18:41;99892.47;;;11.58;60.78
38227;BME280;24026;49.446;8.576;2022-12-29T09:21:03;99900.16;;;11.59;60.85
38227;BME280;24026;49.446;8.576;2022-12-29T09:23:24;99900.16;;;11.59;61.01
38227;BME280;24026;49.446;8.576;2022-12-29T09:25:47;99904.44;;;11.60;60.83
38227;BME280;24026;49.446;8.576;2022-12-29T09:28:07;99896.44;;;11.60;61.05
38227;BME280;24026;49.446;8.576;2022-12-29T09:30:27;99905.22;;;11.61;60.96
38227;BME280;24026;49.446;8.576;2022-12-29T09:32:49;99915.06;;;11.60;60.94
38227;BME280;24026;49.446;8.576;2022-12-29T09:35:09;99919.34;;;11.61;60.83
38227;BME280;24026;49.446;8.576;2022-12-29T09:37:30;99919.88;;;11.63;60.85
38227;BME280;24026;49.446;8.576;2022-12-29T09:39:50;99912.94;;;11.62;60.92
38227;BME280;24026;49.446;8.576;2022-12-29T09:44:56;99908.69;;;11.61;60.91
38227;BME280;24026;49.446;8.576;2022-12-29T09:47:21;99914.56;;;11.63;60.91
38227;BME280;24026;49.446;8.576;2022-12-29T09:50:05;99920.41;;;11.60;60.75
38227;BME280;24026;49.446;8.576;2022-12-29T09:52:32;99928.13;;;11.62;60.75
38227;BME280;24026;49.446;8.576;2022-12-29T09:55:05;99930.78;;;11.62;60.87
38227;BME280;24026;49.446;8.576;2022-12-29T09:57:36;99929.75;;;11.63;60.86
38227;BME280;24026;49.446;8.576;2022-12-29T10:00:08;99934.00;;;11.64;60.80
38227;BME280;24026;49.446;8.576;2022-12-29T10:02:38;99932.16;;;11.64;60.90
38227;BME280;24026;49.446;8.576;2022-12-29T10:05:00;99938.25;;;11.65;60.83
38227;BME280;24026;49.446;8.576;2022-12-29T10:07:26;99938.53;;;11.68;60.74
38227;BME280;24026;49.446;8.576;2022-12-29T10:09:59;99936.94;;;11.67;60.93
38227;BME280;24026;49.446;8.576;2022-12-29T10:12:33;99934.53;;;11.66;61.05
38227;BME280;24026;49.446;8.576;2022-12-29T10:15:07;99930.81;;;11.67;60.94
38227;BME280;24026;49.446;8.576;2022-12-29T10:17:39;99933.72;;;11.65;61.06
38227;BME280;24026;49.446;8.576;2022-12-29T10:23:01;99939.59;;;11.67;60.91
38227;BME280;24026;49.446;8.576;2022-12-29T10:25:26;99939.91;;;11.71;61.10
38227;BME280;24026;49.446;8.576;2022-12-29T10:27:50;99946.00;;;11.72;61.26
38227;BME280;24026;49.446;8.576;2022-12-29T10:30:12;99933.50;;;11.72;60.94
38227;BME280;24026;49.446;8.576;2022-12-29T10:32:39;99939.06;;;11.71;61.17
38227;BME280;24026;49.446;8.576;2022-12-29T10:35:09;99943.34;;;11.72;61.08
38227;BME280;24026;49.446;8.576;2022-12-29T10:40:00;99926.88;;;11.75;61.06
38227;BME280;24026;49.446;8.576;2022-12-29T10:42:26;99933.78;;;11.76;60.92
38227;BME280;24026;49.446;8.576;2022-12-29T10:44:47;99925.78;;;11.76;61.08
38227;BME280;24026;49.446;8.576;2022-12-29T10:47:23;99943.63;;;11.75;61.22
38227;BME280;24026;49.446;8.576;2022-12-29T10:49:46;99931.94;;;11.76;61.29
38227;BME280;24026;49.446;8.576;2022-12-29T10:52:08;99931.38;;;11.79;61.16
38227;BME280;24026;49.446;8.576;2022-12-29T10:54:38;99926.59;;;11.76;61.17
38227;BME280;24026;49.446;8.576;2022-12-29T10:57:02;99927.94;;;11.79;61.37
38227;BME280;24026;49.446;8.576;2022-12-29T10:59:26;99923.13;;;11.81;61.11
38227;BME280;24026;49.446;8.576;2022-12-29T11:07:01;99925.81;;;11.81;61.39
38227;BME280;24026;49.446;8.576;2022-12-29T11:09:27;99922.34;;;11.80;61.26
38227;BME280;24026;49.446;8.576;2022-12-29T11:11:48;99931.94;;;11.81;61.39
38227;BME280;24026;49.446;8.576;2022-12-29T11:14:16;99924.50;;;11.83;61.08
38227;BME280;24026;49.446;8.576;2022-12-29T11:16:38;99935.41;;;11.87;61.26
38227;BME280;24026;49.446;8.576;2022-12-29T11:18:58;99941.88;;;11.91;61.08
38227;BME280;24026;49.446;8.576;2022-12-29T11:21:36;99928.78;;;11.90;60.54
38227;BME280;24026;49.446;8.576;2022-12-29T11:24:05;99933.91;;;11.96;60.57
38227;BME280;24026;49.446;8.576;2022-12-29T11:26:27;99925.09;;;12.01;60.40
38227;BME280;24026;49.446;8.576;2022-12-29T11:31:43;99937.91;;;12.04;60.21
38227;BME280;24026;49.446;8.576;2022-12-29T11:34:06;99942.19;;;12.05;60.31
38227;BME280;24026;49.446;8.576;2022-12-29T11:36:28;99948.56;;;12.04;60.27
38227;BME280;24026;49.446;8.576;2022-12-29T11:38:51;99940.56;;;12.04;60.49
38227;BME280;24026;49.446;8.576;2022-12-29T11:41:20;99940.03;;;12.02;60.29
38227;BME280;24026;49.446;8.576;2022-12-29T11:43:43;99942.97;;;12.05;60.25
38227;BME280;24026;49.446;8.576;2022-12-29T11:46:05;99941.91;;;12.07;60.41
38227;BME280;24026;49.446;8.576;2022-12-29T11:48:29;99938.44;;;12.06;60.14
38227;BME280;24026;49.446;8.576;2022-12-29T11:50:53;99945.63;;;12.05;60.19
38227;BME280;24026;49.446;8.576;2022-12-29T11:53:23;99938.44;;;12.06;60.23
38227;BME280;24026;49.446;8.576;2022-12-29T11:58:18;99933.94;;;12.07;60.36
38227;BME280;24026;49.446;8.576;2022-12-29T12:00:39;99939.25;;;12.07;60.37
38227;BME280;24026;49.446;8.576;2022-12-29T12:03:03;99930.19;;;12.08;60.05
38227;BME280;24026;49.446;8.576;2022-12-29T12:05:41;99940.56;;;12.04;60.03
38227;BME280;24026;49.446;8.576;2022-12-29T12:08:10;99936.59;;;12.07;60.15
38227;BME280;24026;49.446;8.576;2022-12-29T12:10:36;99937.91;;;12.09;60.07
38227;BME280;24026;49.446;8.576;2022-12-29T12:13:08;99952.06;;;12.10;60.17
38227;BME280;24026;49.446;8.576;2022-12-29T12:15:39;99950.19;;;12.10;60.17
38227;BME280;24026;49.446;8.576;2022-12-29T12:20:49;99942.19;;;12.05;60.04
38227;BME280;24026;49.446;8.576;2022-12-29T12:25:45;99954.16;;;12.08;60.26
38227;BME280;24026;49.446;8.576;2022-12-29T12:28:18;99941.66;;;12.08;60.07
38227;BME280;24026;49.446;8.576;2022-12-29T12:30:44;99939.00;;;12.13;60.13
38227;BME280;24026;49.446;8.576;2022-12-29T12:35:57;99929.38;;;12.07;60.02
38227;BME280;24026;49.446;8.576;2022-12-29T12:41:08;99926.47;;;12.14;60.07
38227;BME280;24026;49.446;8.576;2022-12-29T12:57:01;99927.81;;;12.11;59.86
38227;BME280;24026;49.446;8.576;2022-12-29T13:05:29;99919.81;;;12.11;60.03
38227;BME280;24026;49.446;8.576;2022-12-29T13:10:47;99927.25;;;12.09;60.15
38227;BME280;24026;49.446;8.576;2022-12-29T13:15:52;99911.53;;;12.13;59.96
38227;BME280;24026;49.446;8.576;2022-12-29T13:21:28;99905.69;;;12.16;59.81
38227;BME280;24026;49.446;8.576;2022-12-29T13:26:47;99917.97;;;12.17;59.93
38227;BME280;24026;49.446;8.576;2022-12-29T13:29:23;99930.75;;;12.20;59.72
38227;BME280;24026;49.446;8.576;2022-12-29T13:35:23;99924.88;;;12.13;60.04
38227;BME280;24026;49.446;8.576;2022-12-29T13:37:53;99934.75;;;12.17;59.87
38227;BME280;24026;49.446;8.576;2022-12-29T13:40:17;99937.16;;;12.19;59.98
38227;BME280;24026;49.446;8.576;2022-12-29T13:42:40;99927.84;;;12.16;60.08
38227;BME280;24026;49.446;8.576;2022-12-29T13:45:06;99931.28;;;12.17;60.04
38227;BME280;24026;49.446;8.576;2022-12-29T13:47:46;99926.47;;;12.14;60.02
38227;BME280;24026;49.446;8.576;2022-12-29T13:50:19;99933.41;;;12.15;59.87
38227;BME280;24026;49.446;8.576;2022-12-29T13:58:24;99942.47;;;12.14;59.95
38227;BME280;24026;49.446;8.576;2022-12-29T14:01:15;99937.63;;;12.05;60.29
38227;BME280;24026;49.446;8.576;2022-12-29T14:08:34;99953.66;;;12.16;60.22
38227;BME280;24026;49.446;8.576;2022-12-29T14:10:54;99960.84;;;12.15;60.30
38227;BME280;24026;49.446;8.576;2022-12-29T14:13:18;99963.50;;;12.15;60.26
38227;BME280;24026;49.446;8.576;2022-12-29T14:15:42;99961.66;;;12.16;60.30
38227;BME280;24026;49.446;8.576;2022-12-29T14:18:23;99959.78;;;12.11;60.45
38227;BME280;24026;49.446;8.576;2022-12-29T14:28:28;99966.16;;;12.10;60.88
38227;BME280;24026;49.446;8.576;2022-12-29T14:30:51;99966.97;;;12.11;60.88
38227;BME280;24026;49.446;8.576;2022-12-29T14:33:13;99979.47;;;12.10;60.92